Hauptseite
METAR-TAF:

METAR-TAF

Flughäfen :

Plzeň, Tschechien

Breite: 49-40-31N, Länge: 13-16-29E, Höhe: 362 m

Beobachtung

Neuester Wetterbericht von vor 1 Stunde und 13 Minuten, um 18:00 UTC
Wind 2 kt aus unterschiedlichen Richtungen
Temperatur 16°C
Luftfeuchtigkeit 72%
Luftdruck 1005 hPa
Sichtweite 10 km oder mehr
Aufgelockert bewölkt in der Höhe von 7800 ft
Durchbrochene Bewölkung in der Höhe von 9700 ft

METAR: LKLN 301800Z AUTO VRB02KT 9999 SCT078 BKN097 16/11 Q1005

Zeit: 21:13 (19:13 UTC)


TAF: fehlend

Wetterbeobachtungen und Prognosen von mehr als 4000 Flughäfen (METAR und TAF Bericht).

Die verfügbaren Stationen werden durch gelbe und rote Markierungen auf der Karte dargestellt.

Führen Sie die Maus auf sie, um den Namen der Station zu sehen.

Darauf klicken, um die Beobachtung von Wetterbeobachtungen und Prognosen zu sehen.

Um die Karte zu ändern : klicken Sie auf den grünen Tasten mit einem schwarzen Kreuz Zum Vergrößern, auf den grünen Button mit einem Gedankenstrich zu verkleinern, oder auf die grünen Pfeile für benachbarte Karten.


METAR-TAF: